McChord AFB, Washington
Current Conditions -  °F | °C
As of 7:58 PM on Tuesday 21 Oct 2014 (Local Time) from KGRF Reporting Station
Overcast Overcast  
Wind Chill: 59°   Ceiling: 7000
Heat Index: 59°   Visibility: 10mi
Dew Point: 47°   Wind: 12mph
Humidity: 65%   Direction: 120°ESE
Pressure: 29.83"   Gusts: NA
Location:  47.1264°N, 122.555°W
Report Text: KGRF 220258Z AUTO 12010KT 10SM OVC070 15/09 A2983 RMK AO2 SLP105 T01510086 58016 PWINO $
Loading
Personal Weather Stations






























Interactive Weather Map
Tropical Storm Tracking
New forecast layout! Learn more

10-Day Weather Forecast

Advertisements
Track Severe Weather on mobile